Aérodrome :
LOGIN :

S'inscrire | Disclaimer

   EN    FR    IT 

 










Légende :    VFR   VFR Marginal   IFR   IFR Intensif   IFR Très Intensif
Visi : 
Plafond : 
>= 8 km
>= 3000ft
5 à 8 km
1000 à 3000 ft
1500m à 5 km
500 à 1000 ft
800 à 1500m
200 à 500 ft
< 800m
< 200 ft
Symboles :   Orages  Brouillard  Fortes neiges  Fortes précipitations  Vent > 20 kt
SIGMETs :   Divers  Orages  Givrage  Turbulence  Onde Orograph.  Cendres Volcan.






- Altitude de l'aérodrome : 782 ft
- Code IATA : BGY


LIME - Orio al Serio International - Bergamo

DERNIER METAR :
  • 132020Z 03003KT 9999 SCT100 24/21 Q1014 NOSIG

METARs EXPIRÉS :
  • 131950Z VRB01KT 9999 SCT100 26/20 Q1014 NOSIG
  • 131920Z 01003KT 9999 SCT100 25/21 Q1014 NOSIG
  • 131850Z VRB01KT 9999 SCT100 27/19 Q1014 NOSIG
  • 131820Z VRB02KT 9999 SCT100 27/20 Q1014 NOSIG
  • 131750Z 27004KT 9999 SCT100 27/20 Q1014 NOSIG

TAF TAF LIME
Valide du 13 à 18h jusqu'au 14 à 18h UTC


131700Z 1318/1418 VRB05KT 9999 FEW040
TEMPO 1404/1416 4000 TSRA



MET'MAP, la Météo Aéronautique d'un coup d'oeil ! - Copyright ORBIFLY Décembre 2007 - Disclaimer

ORBIFLY MET'MAP TEAM :

Programmation & Développement : Alexandra Zaïnal
Sur une idée originale de : Baudouin d'Aumeries
Assistance à la programmation : Marc-Olivier Méhu
Soutien technique & logistique : Manuel Goepfert

Contact : metmap@orbifly.com




SOURCES & CREDITS :

   NOAA